createdAt,value
2018-02-24T00:00:10.514Z,54.28
2018-02-24T00:02:38.067Z,54.63
2018-02-24T00:05:09.607Z,54.27
2018-02-24T00:07:37.777Z,54.67
2018-02-24T00:10:06.456Z,55.46
2018-02-24T00:12:39.076Z,55.23
2018-02-24T00:15:06.779Z,54.72
2018-02-24T00:17:34.374Z,55.29
2018-02-24T00:20:01.964Z,54.65
2018-02-24T00:22:29.514Z,55.19
2018-02-24T00:24:57.183Z,55.07
2018-02-24T00:27:24.747Z,54.54
2018-02-24T00:29:52.234Z,55.34
2018-02-24T00:32:19.786Z,55.02
2018-02-24T00:34:47.518Z,54.81
2018-02-24T00:37:15.010Z,54.59
2018-02-24T00:39:42.478Z,55.40
2018-02-24T00:42:10.033Z,55.12
2018-02-24T00:44:37.663Z,54.74
2018-02-24T00:47:05.350Z,54.64
2018-02-24T00:49:32.816Z,54.90
2018-02-24T00:52:00.261Z,54.10
2018-02-24T00:54:28.394Z,54.38
2018-02-24T00:56:55.995Z,54.73
2018-02-24T00:59:23.457Z,54.38
2018-02-24T01:01:50.944Z,53.93
2018-02-24T01:04:18.387Z,54.51
2018-02-24T01:06:45.916Z,54.74
2018-02-24T01:09:13.359Z,53.76
2018-02-24T01:11:40.815Z,54.60
2018-02-24T01:14:08.270Z,54.20
2018-02-24T01:16:35.734Z,54.28
2018-02-24T01:19:03.209Z,54.05
2018-02-24T01:21:30.659Z,54.39
2018-02-24T01:23:58.133Z,54.65
2018-02-24T01:26:25.583Z,53.77
2018-02-24T01:28:53.056Z,54.56
2018-02-24T01:31:20.542Z,54.64
2018-02-24T01:33:47.989Z,54.45
2018-02-24T01:36:15.446Z,54.58
2018-02-24T01:38:42.895Z,54.90
2018-02-24T01:41:10.348Z,54.39
2018-02-24T01:43:37.820Z,54.51
2018-02-24T01:46:05.417Z,54.73
2018-02-24T01:48:32.877Z,54.18
2018-02-24T01:51:00.366Z,55.16
2018-02-24T01:53:27.824Z,55.96
2018-02-24T01:55:55.302Z,56.52
2018-02-24T01:58:22.765Z,56.30
2018-02-24T02:00:50.214Z,56.41
2018-02-24T02:03:17.999Z,56.01
2018-02-24T02:05:45.458Z,56.41
2018-02-24T02:08:12.994Z,56.22
2018-02-24T02:10:40.483Z,55.57
2018-02-24T02:13:07.923Z,55.59
2018-02-24T02:15:35.423Z,56.11
2018-02-24T02:18:02.892Z,55.50
2018-02-24T02:20:30.334Z,56.00
2018-02-24T02:22:57.823Z,55.90
2018-02-24T02:25:25.278Z,55.80
2018-02-24T02:27:52.922Z,56.45
2018-02-24T02:30:20.380Z,56.90
2018-02-24T02:32:47.836Z,56.64
2018-02-24T02:35:15.320Z,57.16
2018-02-24T02:37:42.791Z,56.47
2018-02-24T02:40:10.250Z,57.00
2018-02-24T02:45:42.635Z,56.18
2018-02-24T02:48:10.218Z,56.48
2018-02-24T02:50:37.732Z,57.29
2018-02-24T02:53:05.272Z,57.69
2018-02-24T02:55:32.815Z,57.35
2018-02-24T02:58:00.346Z,57.75
2018-02-24T03:00:27.877Z,58.56
2018-02-24T03:02:55.378Z,59.41
2018-02-24T03:05:22.902Z,59.68
2018-02-24T03:07:50.433Z,60.05
2018-02-24T03:10:17.929Z,60.20
2018-02-24T03:12:45.450Z,60.01
2018-02-24T03:15:12.940Z,60.27
2018-02-24T03:17:40.460Z,60.97
2018-02-24T03:20:07.989Z,60.90
2018-02-24T03:22:35.506Z,60.91
2018-02-24T03:25:03.000Z,61.06
2018-02-24T03:27:30.515Z,61.18
2018-02-24T03:29:58.021Z,61.12
2018-02-24T03:32:25.536Z,61.19
2018-02-24T03:34:53.137Z,61.28
2018-02-24T03:37:20.666Z,61.72
2018-02-24T03:39:48.179Z,62.37
2018-02-24T03:42:15.723Z,62.97
2018-02-24T03:44:43.296Z,62.98
2018-02-24T03:47:10.856Z,62.90
2018-02-24T03:49:38.391Z,63.20
2018-02-24T03:52:05.892Z,62.90
2018-02-24T03:54:33.749Z,63.29
2018-02-24T03:57:01.336Z,62.66
2018-02-24T03:59:28.901Z,62.20
2018-02-24T04:01:56.405Z,62.22
2018-02-24T04:04:23.931Z,62.52
2018-02-24T04:06:51.449Z,62.91
2018-02-24T04:09:18.954Z,63.12
2018-02-24T04:11:46.474Z,63.53
2018-02-24T04:14:14.009Z,63.04
2018-02-24T04:16:41.524Z,63.75
2018-02-24T04:19:09.232Z,63.97
2018-02-24T04:21:36.760Z,63.92
2018-02-24T04:24:04.267Z,63.63
2018-02-24T04:26:31.792Z,64.13
2018-02-24T04:28:59.328Z,64.39
2018-02-24T04:31:26.841Z,64.66
2018-02-24T04:33:54.521Z,64.50
2018-02-24T04:36:22.025Z,64.92
2018-02-24T04:38:49.524Z,64.84
2018-02-24T04:41:17.058Z,65.06
2018-02-24T04:43:44.569Z,65.62
2018-02-24T04:46:12.096Z,65.05
2018-02-24T04:48:39.737Z,65.36
2018-02-24T04:51:07.307Z,65.61
2018-02-24T04:53:34.822Z,65.50
2018-02-24T04:56:02.330Z,66.15
2018-02-24T04:58:29.891Z,65.89
2018-02-24T05:00:57.512Z,66.21
2018-02-24T05:03:25.039Z,66.36
2018-02-24T05:05:52.518Z,66.38
2018-02-24T05:08:20.051Z,66.74
2018-02-24T05:10:47.610Z,66.33
2018-02-24T05:13:15.131Z,66.21
2018-02-24T05:15:42.688Z,66.17
2018-02-24T05:18:10.213Z,66.08
2018-02-24T05:20:37.740Z,66.03
2018-02-24T05:23:05.298Z,65.59
2018-02-24T05:25:32.824Z,65.52
2018-02-24T05:28:00.318Z,66.09
2018-02-24T05:30:27.842Z,66.60
2018-02-24T05:32:55.414Z,66.04
2018-02-24T05:35:22.932Z,66.35
2018-02-24T05:37:50.460Z,66.81
2018-02-24T05:40:18.066Z,66.79
2018-02-24T05:42:45.599Z,66.64
2018-02-24T05:45:13.123Z,67.00
2018-02-24T05:47:40.694Z,66.88
2018-02-24T05:50:08.219Z,66.83
2018-02-24T05:52:35.763Z,66.87
2018-02-24T05:55:03.318Z,67.54
2018-02-24T05:57:30.838Z,66.70
2018-02-24T05:59:58.368Z,66.91
2018-02-24T06:02:25.900Z,66.94
2018-02-24T06:04:53.400Z,67.21
2018-02-24T06:07:20.936Z,67.26
2018-02-24T06:09:48.452Z,67.76
2018-02-24T06:12:15.985Z,67.86
2018-02-24T06:14:43.517Z,68.32
2018-02-24T06:17:11.038Z,68.61
2018-02-24T06:19:38.546Z,68.75
2018-02-24T06:22:06.078Z,68.73
2018-02-24T06:24:33.608Z,68.92
2018-02-24T06:27:01.142Z,68.69
2018-02-24T06:29:28.669Z,68.68
2018-02-24T06:31:56.172Z,68.84
2018-02-24T06:34:23.726Z,68.70
2018-02-24T06:36:51.332Z,68.66
2018-02-24T06:39:18.904Z,68.65
2018-02-24T06:41:46.425Z,68.48
2018-02-24T06:44:13.999Z,68.47
2018-02-24T06:46:41.526Z,68.11
2018-02-24T06:49:09.145Z,67.42
2018-02-24T06:51:36.681Z,67.63
2018-02-24T06:54:04.249Z,67.22
2018-02-24T06:56:31.817Z,67.09
2018-02-24T06:58:59.316Z,66.90
2018-02-24T07:01:26.960Z,66.76
2018-02-24T07:03:54.500Z,65.93
2018-02-24T07:06:22.065Z,65.66
2018-02-24T07:08:49.634Z,65.32
2018-02-24T07:11:17.144Z,65.35
2018-02-24T07:13:44.713Z,65.01
2018-02-24T07:16:12.228Z,64.70
2018-02-24T07:18:39.782Z,64.14
2018-02-24T07:21:07.305Z,63.91
2018-02-24T07:23:34.951Z,63.60
2018-02-24T07:26:02.529Z,63.19
2018-02-24T07:28:30.041Z,62.32
2018-02-24T07:30:57.746Z,62.19
2018-02-24T07:33:25.300Z,61.93
2018-02-24T07:35:52.867Z,61.25
2018-02-24T07:38:20.430Z,61.08
2018-02-24T07:40:47.960Z,60.80
2018-02-24T07:43:15.508Z,59.72
2018-02-24T07:45:43.068Z,59.50
2018-02-24T07:48:10.673Z,58.96
2018-02-24T07:50:38.213Z,58.09
2018-02-24T07:53:05.738Z,58.00
2018-02-24T07:55:33.513Z,57.27
2018-02-24T07:58:01.025Z,57.58
2018-02-24T08:00:28.535Z,58.34
2018-02-24T08:02:56.106Z,57.44
2018-02-24T08:20:00.842Z,54.62
2018-02-24T08:22:28.401Z,54.28
2018-02-24T08:24:56.059Z,53.50
2018-02-24T08:27:23.594Z,53.54
2018-02-24T08:29:51.127Z,52.86
2018-02-24T08:32:18.640Z,52.56
2018-02-24T08:34:46.315Z,50.90
2018-02-24T08:37:13.919Z,50.90
2018-02-24T08:39:43.582Z,50.33
2018-02-24T08:42:11.126Z,50.33
2018-02-24T08:44:38.836Z,49.88
2018-02-24T08:47:06.389Z,49.36
2018-02-24T08:49:33.922Z,48.33
2018-02-24T08:52:01.442Z,48.37
2018-02-24T08:54:29.022Z,47.79
2018-02-24T08:56:56.886Z,46.36
2018-02-24T08:59:24.446Z,46.54
2018-02-24T09:01:51.957Z,45.71
2018-02-24T09:04:19.551Z,44.19
2018-02-24T09:06:47.131Z,44.25
2018-02-24T09:09:14.702Z,44.44
2018-02-24T09:11:42.221Z,45.13
2018-02-24T09:14:09.846Z,43.18
2018-02-24T09:16:37.406Z,42.40
2018-02-24T09:19:16.486Z,42.40
2018-02-24T09:21:44.089Z,41.89
2018-02-24T09:24:11.589Z,41.71
2018-02-24T09:26:39.083Z,41.47
2018-02-24T09:29:06.634Z,39.94
2018-02-24T09:31:34.152Z,39.79
2018-02-24T09:34:01.785Z,40.13
2018-02-24T09:36:29.306Z,39.54
2018-02-24T09:38:56.842Z,39.65
2018-02-24T09:41:24.332Z,39.22
2018-02-24T09:43:51.904Z,37.85
2018-02-24T09:46:19.579Z,37.69
2018-02-24T09:48:47.192Z,38.44
2018-02-24T09:51:14.748Z,37.47
2018-02-24T09:53:42.351Z,38.07
2018-02-24T09:56:09.936Z,37.49
2018-02-24T09:58:37.540Z,37.35
2018-02-24T10:01:07.329Z,36.36
2018-02-24T10:03:35.047Z,35.65
2018-02-24T10:06:02.577Z,36.00
2018-02-24T10:08:30.179Z,35.63
2018-02-24T10:10:57.673Z,35.53
2018-02-24T10:13:25.178Z,34.88
2018-02-24T10:15:52.711Z,33.91
2018-02-24T10:18:21.679Z,34.52
2018-02-24T10:20:49.291Z,34.02
2018-02-24T10:23:16.852Z,34.09
2018-02-24T10:25:44.521Z,33.99
2018-02-24T10:28:12.048Z,34.73
2018-02-24T10:30:39.685Z,34.08
2018-02-24T10:33:07.208Z,33.07
2018-02-24T10:35:34.723Z,33.06
2018-02-24T10:38:02.234Z,32.90
2018-02-24T10:40:29.876Z,33.56
2018-02-24T10:42:57.439Z,32.32
2018-02-24T10:45:24.967Z,32.08
2018-02-24T10:47:52.473Z,31.29
2018-02-24T10:50:19.962Z,31.47
2018-02-24T10:52:47.472Z,30.49
2018-02-24T10:55:14.972Z,31.27
2018-02-24T10:57:42.485Z,31.09
2018-02-24T11:00:10.124Z,30.68
2018-02-24T11:02:37.672Z,31.14
2018-02-24T11:05:05.199Z,30.03
2018-02-24T11:07:32.797Z,30.62
2018-02-24T11:10:00.631Z,30.76
2018-02-24T11:12:28.160Z,30.73
2018-02-24T11:14:55.663Z,30.57
2018-02-24T11:17:23.162Z,30.37
2018-02-24T11:19:50.852Z,31.33
2018-02-24T11:22:18.617Z,30.43
2018-02-24T11:24:46.134Z,29.57
2018-02-24T11:27:13.666Z,29.90
2018-02-24T11:29:41.221Z,29.07
2018-02-24T11:32:08.729Z,29.51
2018-02-24T11:34:36.314Z,30.02
2018-02-24T11:37:03.952Z,28.70
2018-02-24T11:39:37.026Z,29.38
2018-02-24T11:42:04.537Z,28.49
2018-02-24T11:44:32.056Z,27.72
2018-02-24T11:46:59.611Z,27.91
2018-02-24T11:49:27.114Z,28.17
2018-02-24T11:51:54.636Z,27.16
2018-02-24T11:54:22.184Z,26.78
2018-02-24T11:56:49.796Z,27.06
2018-02-24T11:59:17.369Z,27.28
2018-02-24T12:01:44.868Z,26.70
2018-02-24T12:04:12.391Z,26.97
2018-02-24T12:06:39.871Z,25.66
2018-02-24T12:09:07.409Z,25.72
2018-02-24T12:11:34.958Z,24.58
2018-02-24T12:14:02.482Z,25.28
2018-02-24T12:16:29.992Z,24.25
2018-02-24T12:18:57.531Z,23.57
2018-02-24T12:21:25.049Z,22.57
2018-02-24T12:26:45.712Z,21.34
2018-02-24T12:34:59.165Z,17.84
2018-02-24T12:37:26.658Z,15.65
2018-02-24T12:39:54.186Z,14.25
2018-02-24T12:42:21.691Z,13.63
2018-02-24T12:44:49.178Z,13.13
2018-02-24T12:47:16.745Z,13.86
2018-02-24T12:49:44.306Z,12.82
2018-02-24T12:52:11.825Z,12.05
2018-02-24T12:54:39.340Z,11.50
2018-02-24T12:57:07.863Z,11.23
2018-02-24T12:59:35.356Z,11.61
2018-02-24T13:02:02.869Z,11.82
2018-02-24T13:04:31.406Z,11.54
2018-02-24T13:06:58.982Z,11.93
2018-02-24T13:09:26.490Z,11.55
2018-02-24T13:11:53.986Z,11.03
2018-02-24T13:14:21.502Z,10.46
2018-02-24T13:16:48.996Z,10.67
2018-02-24T13:19:16.644Z,10.38
2018-02-24T13:22:05.376Z,10.39
2018-02-24T13:24:43.077Z,10.39
2018-02-24T13:27:17.010Z,11.96
2018-02-24T13:29:48.932Z,10.63
2018-02-24T13:32:22.159Z,10.53
2018-02-24T13:34:55.162Z,10.07
2018-02-24T13:37:23.198Z,9.85
2018-02-24T13:40:04.151Z,9.94
2018-02-24T13:42:32.274Z,8.98
2018-02-24T13:45:01.087Z,8.55
2018-02-24T13:47:32.386Z,8.87
2018-02-24T13:50:00.188Z,8.49
2018-02-24T13:55:05.080Z,8.11
2018-02-24T13:57:46.591Z,8.99
2018-02-24T14:00:17.371Z,7.79
2018-02-24T14:02:45.199Z,7.80
2018-02-24T14:05:13.816Z,7.71
2018-02-24T14:07:43.866Z,8.40
2018-02-24T14:10:14.549Z,8.28
2018-02-24T14:12:42.524Z,8.46
2018-02-24T14:15:37.665Z,8.05
2018-02-24T14:18:08.389Z,7.96
2018-02-24T14:20:36.130Z,8.54
2018-02-24T14:23:03.949Z,7.81
2018-02-24T14:25:31.665Z,8.28
2018-02-24T14:28:09.066Z,8.81
2018-02-24T14:30:36.774Z,8.59
2018-02-24T14:33:04.300Z,8.97
2018-02-24T14:35:31.881Z,9.46
2018-02-24T14:37:59.394Z,8.78
2018-02-24T14:40:27.108Z,8.20
2018-02-24T14:42:54.610Z,8.38
2018-02-24T14:45:22.186Z,9.85
2018-02-24T14:47:49.705Z,9.82
2018-02-24T14:50:17.226Z,9.91
2018-02-24T14:52:44.727Z,10.25
2018-02-24T14:55:12.251Z,9.64
2018-02-24T14:57:39.774Z,9.25
2018-02-24T15:00:07.346Z,9.96
2018-02-24T15:02:34.845Z,10.07
2018-02-24T15:05:02.381Z,12.26
2018-02-24T15:07:30.019Z,12.12
2018-02-24T15:09:57.513Z,12.46
2018-02-24T15:12:25.009Z,12.02
2018-02-24T15:14:52.514Z,12.45
2018-02-24T15:17:20.046Z,13.66
2018-02-24T15:19:47.564Z,13.72
2018-02-24T15:22:15.089Z,14.10
2018-02-24T15:24:42.617Z,14.79
2018-02-24T15:27:10.161Z,13.65
2018-02-24T15:29:38.895Z,14.00
2018-02-24T15:32:06.641Z,14.64
2018-02-24T15:34:34.288Z,15.52
2018-02-24T15:37:01.790Z,14.97
2018-02-24T15:39:29.301Z,15.03
2018-02-24T15:41:56.788Z,16.90
2018-02-24T15:44:24.308Z,16.88
2018-02-24T15:46:51.992Z,18.55
2018-02-24T15:49:19.563Z,17.88
2018-02-24T15:51:49.061Z,18.13
2018-02-24T15:57:04.234Z,24.56
2018-02-24T15:59:32.428Z,27.47
2018-02-24T16:02:00.099Z,29.89
2018-02-24T16:04:27.783Z,30.73
2018-02-24T16:06:55.308Z,32.02
2018-02-24T16:09:22.940Z,32.88
2018-02-24T16:11:50.630Z,33.52
2018-02-24T16:14:18.203Z,33.74
2018-02-24T16:16:46.094Z,34.46
2018-02-24T16:19:16.574Z,35.16
2018-02-24T16:21:44.197Z,35.93
2018-02-24T16:24:13.412Z,36.60
2018-02-24T16:26:41.259Z,37.91
2018-02-24T16:29:08.744Z,38.21
2018-02-24T16:31:36.240Z,38.24
2018-02-24T16:34:04.799Z,38.97
2018-02-24T16:36:32.739Z,39.68
2018-02-24T16:39:00.999Z,40.23
2018-02-24T16:41:28.489Z,40.96
2018-02-24T16:43:55.999Z,41.75
2018-02-24T16:46:24.802Z,42.53
2018-02-24T16:48:52.464Z,42.86
2018-02-24T16:51:20.054Z,43.71
2018-02-24T16:53:47.617Z,44.19
2018-02-24T16:56:15.181Z,44.24
2018-02-24T16:58:42.760Z,45.02
2018-02-24T17:01:11.129Z,45.47
2018-02-24T17:03:40.340Z,45.88
2018-02-24T17:06:08.210Z,45.84
2018-02-24T17:08:41.370Z,46.57
2018-02-24T17:11:23.946Z,46.78
2018-02-24T17:13:58.063Z,46.71
2018-02-24T17:19:25.983Z,47.30
2018-02-24T17:21:56.511Z,47.58
2018-02-24T17:24:55.495Z,47.77
2018-02-24T17:27:26.397Z,47.75
2018-02-24T17:30:05.481Z,46.96
2018-02-24T17:32:48.994Z,46.92
2018-02-24T17:35:27.461Z,46.95
2018-02-24T17:38:05.257Z,47.59
2018-02-24T17:40:54.772Z,47.76
2018-02-24T17:43:50.050Z,46.96
2018-02-24T17:46:23.421Z,45.73
2018-02-24T17:54:46.941Z,43.97
2018-02-24T17:57:19.981Z,44.45
2018-02-24T17:59:51.949Z,43.38
2018-02-24T18:11:38.971Z,43.70
2018-02-24T18:17:11.663Z,43.63
2018-02-24T18:19:54.929Z,44.59
2018-02-24T18:22:23.672Z,44.84
2018-02-24T18:25:10.540Z,45.11
2018-02-24T18:30:32.581Z,45.58
2018-02-24T18:33:01.713Z,45.73
2018-02-24T18:35:29.641Z,45.16
2018-02-24T18:37:57.655Z,43.88
2018-02-24T18:40:25.358Z,44.24
2018-02-24T18:42:54.208Z,43.62
2018-02-24T18:45:24.787Z,44.08
2018-02-24T18:47:59.727Z,43.64
2018-02-24T18:50:32.464Z,43.92
2018-02-24T18:53:01.431Z,44.88
2018-02-24T18:55:29.541Z,43.92
2018-02-24T18:57:57.350Z,42.91
2018-02-24T19:00:25.579Z,42.94
2018-02-24T19:02:59.846Z,44.15
2018-02-24T19:05:27.381Z,43.50
2018-02-24T19:07:54.913Z,43.47
2018-02-24T19:10:22.523Z,43.71
2018-02-24T19:12:50.117Z,43.06
2018-02-24T19:15:17.724Z,44.03
2018-02-24T19:17:45.277Z,42.88
2018-02-24T19:20:12.788Z,42.71
2018-02-24T19:22:40.320Z,42.52
2018-02-24T19:25:07.962Z,42.22
2018-02-24T19:27:35.493Z,42.66
2018-02-24T19:30:03.040Z,44.09
2018-02-24T19:32:54.331Z,45.47
2018-02-24T19:35:23.272Z,46.89
2018-02-24T19:37:50.806Z,43.52
2018-02-24T19:40:18.410Z,42.17
2018-02-24T19:42:45.995Z,43.66
2018-02-24T19:45:14.003Z,41.96
2018-02-24T19:47:44.906Z,43.69
2018-02-24T19:50:15.070Z,42.96
2018-02-24T19:52:45.656Z,42.39
2018-02-24T19:55:13.479Z,42.28
2018-02-24T19:57:41.990Z,42.70
2018-02-24T20:00:09.917Z,42.72
2018-02-24T20:02:37.770Z,42.31
2018-02-24T20:05:10.728Z,42.17
2018-02-24T20:07:40.075Z,42.93
2018-02-24T20:10:07.662Z,42.68
2018-02-24T20:12:35.371Z,42.48
2018-02-24T20:15:06.021Z,41.89
2018-02-24T20:17:33.932Z,41.83
2018-02-24T20:20:01.461Z,42.99
2018-02-24T20:22:28.970Z,43.30
2018-02-24T20:24:56.471Z,42.44
2018-02-24T20:27:24.025Z,43.21
2018-02-24T20:29:51.597Z,42.97
2018-02-24T20:32:19.222Z,43.36
2018-02-24T20:34:46.918Z,43.36
2018-02-24T20:37:14.430Z,43.16
2018-02-24T20:39:41.966Z,43.27
2018-02-24T20:42:09.515Z,43.64
2018-02-24T20:44:37.041Z,43.13
2018-02-24T20:47:04.554Z,43.25
2018-02-24T20:49:32.998Z,43.36
2018-02-24T20:52:00.546Z,43.46
2018-02-24T20:54:29.038Z,43.54
2018-02-24T20:56:56.550Z,43.76
2018-02-24T20:59:24.057Z,43.40
2018-02-24T21:01:51.564Z,43.30
2018-02-24T21:04:19.086Z,44.14
2018-02-24T21:06:46.629Z,43.37
2018-02-24T21:09:14.375Z,44.72
2018-02-24T21:11:41.876Z,44.95
2018-02-24T21:14:09.559Z,44.54
2018-02-24T21:16:37.159Z,44.37
2018-02-24T21:19:04.663Z,44.70
2018-02-24T21:21:32.217Z,44.51
2018-02-24T21:23:59.764Z,44.65
2018-02-24T21:26:27.360Z,45.35
2018-02-24T21:28:54.866Z,45.18
2018-02-24T21:31:22.397Z,45.66
2018-02-24T21:33:50.010Z,45.05
2018-02-24T21:36:17.516Z,45.56
2018-02-24T21:38:45.712Z,45.81
2018-02-24T21:41:13.347Z,45.58
2018-02-24T21:43:40.942Z,44.70
2018-02-24T21:46:08.479Z,45.34
2018-02-24T21:48:36.069Z,44.89
2018-02-24T21:51:03.624Z,45.49
2018-02-24T21:53:31.254Z,46.70
2018-02-24T21:55:59.851Z,44.26
2018-02-24T21:58:27.510Z,45.11
2018-02-24T22:00:55.012Z,44.90
2018-02-24T22:03:22.800Z,44.66
2018-02-24T22:05:50.706Z,44.81
2018-02-24T22:08:18.269Z,45.57
2018-02-24T22:10:45.766Z,45.34
2018-02-24T22:13:13.348Z,45.47
2018-02-24T22:15:40.944Z,45.85
2018-02-24T22:18:08.680Z,46.03
2018-02-24T22:20:36.400Z,46.82
2018-02-24T22:23:03.929Z,47.13
2018-02-24T22:25:32.421Z,48.19
2018-02-24T22:28:00.081Z,46.96
2018-02-24T22:30:27.687Z,47.55
2018-02-24T22:32:55.209Z,47.03
2018-02-24T22:35:22.731Z,47.10
2018-02-24T22:37:50.414Z,47.11
2018-02-24T22:40:17.961Z,48.14
2018-02-24T22:42:45.661Z,47.52
2018-02-24T22:45:13.255Z,47.76
2018-02-24T22:47:46.243Z,48.67
2018-02-24T22:50:13.786Z,48.39
2018-02-24T22:52:42.205Z,48.27
2018-02-24T22:55:12.529Z,47.54
2018-02-24T22:57:40.820Z,47.94
2018-02-24T23:00:12.217Z,48.60
2018-02-24T23:03:02.320Z,48.19
2018-02-24T23:05:29.900Z,48.45
2018-02-24T23:07:57.559Z,47.84
2018-02-24T23:10:25.210Z,48.42
2018-02-24T23:12:53.810Z,48.43
2018-02-24T23:15:21.637Z,48.37
2018-02-24T23:17:49.319Z,48.10
2018-02-24T23:20:16.926Z,47.89
2018-02-24T23:22:44.761Z,47.48
2018-02-24T23:25:13.105Z,48.25
2018-02-24T23:27:43.385Z,48.76
2018-02-24T23:30:10.983Z,47.62
2018-02-24T23:32:38.558Z,48.15
2018-02-24T23:35:06.424Z,48.42
2018-02-24T23:37:34.326Z,47.60
2018-02-24T23:40:02.567Z,48.44
2018-02-24T23:42:31.331Z,47.45
2018-02-24T23:44:59.914Z,48.05
2018-02-24T23:47:27.616Z,48.29
2018-02-24T23:49:55.495Z,48.02
2018-02-24T23:52:23.066Z,49.04
2018-02-24T23:54:50.615Z,48.74
2018-02-24T23:57:18.117Z,48.67
2018-02-24T23:59:45.818Z,48.55
